Leland, OR

3:08 AM PST on January 19, 2017 (GMT -0800)
MSVFO3 | | Change Station
Active Advisory: Flood Warning

Elev 3972 ft 42.86 °N, 123.38 °W | Updated 1 hour ago

Overcast
Overcast
32.0 °F
Feels Like 32 °F
N
0.0
Wind Variable Wind from North
Gusts 0.0 mph

Today
High -- | Low -- °F
--% Chance of Precip.
Yesterday
High -- | Low -- °F
Precip. -- in
Pressure 29.64 in
Visibility 4.0 miles
Clouds Mostly Cloudy 5500 ft
Mostly Cloudy 7000 ft
Windchill 32 °F
Dew Point 31 °F
Humidity 98%
Rainfall 0.97 in
Snow Depth Not available.
7:38 AM 5:10 PM
Waning Gibbous, 54% visible
SPECI KMFR 191100Z AUTO 00000KT 4SM BR BKN055 BKN070 04/04 A2964 RMK AO2 T00390039
Pressure 29.64 in
Visibility 4.0 miles
Clouds Mostly Cloudy 5500 ft
Mostly Cloudy 7000 ft
Windchill 32 °F
Dew Point 31 °F
Humidity 98%
Rainfall 0.97 in
Snow Depth Not available.
7:38 AM 5:10 PM
Waning Gibbous, 54% visible
SPECI KMFR 191100Z AUTO 00000KT 4SM BR BKN055 BKN070 04/04 A2964 RMK AO2 T00390039

Get Your Daily Forecast Email!

Thanks for signing up!

Be on the lookout for a verification email in your inbox.

You'll start receiving the daily forecast at 8 AM.

×

10-Day Weather Forecast

Almanac

Astronomy

Jan. 19, 2017 Rise Set
Actual Time
Civil Twilight
Nautical Twilight
Astronomical Twilight
Moon
Length of Visible Light
Length of Day
Tomorrow will be .
, % of the Moon is Illuminated

Today's Extremes

State Highs State Lows

Community

WunderPhotos

Upload Photos

1,962,540 photos uploaded!

WunderBlog® & News

Nearby

Air Quality

  Air Quality AQ Index Pollutant
Not available.

Snow Depth

Station Depth Elevation

Earthquake Activity

City Distance Mag. Time & Date
Minimum magnitude displayed is 2.5.

Coastal Water Temperatures

Place Temperature

Stations

Nearby Weather Stations

Station Location Temp. Windchill Dew Point Humidity Wind Precip. Elev Updated Type
                   

Watches & Warnings

Flood Warning
Issued: 2:04 AM PST Jan. 19, 2017 – National Weather Service

The Flood Warning continues for
the Rogue River near Agness.
* Until late tonight.
* At 1:30 am Thursday the stage was 17.9 feet.
* Flood stage is 17.0 feet.
* Minor flooding is occurring and minor flooding is forecast.
The river is forecast to peak early this morning at 18.3 feet
then fall below flood stage late this afternoon.
* Impact... at 17.0 feet... river rises to this stage or above may
affect recreation interests along the Rogue River at and below
Agness, Oregon. Sudden river rises of a few feet may also affect
home and business owners with boat docks on the river.
* Flood history... this crest compares to a previous crest of 17.7 feet
on Dec 14 2015.


Lat... Lon 4274 12390 4246 12442 4237 12442 4261 12385 4274 12375